sensor_id;sensor_type;location;lat;lon;timestamp;P1;durP1;ratioP1;P2;durP2;ratioP2
10458;SDS011;5277;48.722;8.736;2023-03-13T00:01:26;16.10;;;5.40;;
10458;SDS011;5277;48.722;8.736;2023-03-13T00:03:54;16.27;;;5.63;;
10458;SDS011;5277;48.722;8.736;2023-03-13T00:06:20;15.33;;;5.80;;
10458;SDS011;5277;48.722;8.736;2023-03-13T00:08:49;13.70;;;4.80;;
10458;SDS011;5277;48.722;8.736;2023-03-13T00:11:15;16.70;;;5.60;;
10458;SDS011;5277;48.722;8.736;2023-03-13T00:13:43;12.80;;;5.40;;
10458;SDS011;5277;48.722;8.736;2023-03-13T00:16:10;12.87;;;6.03;;
10458;SDS011;5277;48.722;8.736;2023-03-13T00:18:38;13.80;;;5.37;;
10458;SDS011;5277;48.722;8.736;2023-03-13T00:21:08;11.73;;;5.37;;
10458;SDS011;5277;48.722;8.736;2023-03-13T00:23:35;13.33;;;5.60;;
10458;SDS011;5277;48.722;8.736;2023-03-13T00:26:02;14.97;;;6.17;;
10458;SDS011;5277;48.722;8.736;2023-03-13T00:28:36;15.37;;;5.70;;
10458;SDS011;5277;48.722;8.736;2023-03-13T00:31:07;15.17;;;5.87;;
10458;SDS011;5277;48.722;8.736;2023-03-13T00:33:41;17.93;;;6.80;;
10458;SDS011;5277;48.722;8.736;2023-03-13T00:36:12;14.03;;;5.73;;
10458;SDS011;5277;48.722;8.736;2023-03-13T00:38:43;11.33;;;4.80;;
10458;SDS011;5277;48.722;8.736;2023-03-13T00:41:16;14.93;;;5.93;;
10458;SDS011;5277;48.722;8.736;2023-03-13T00:43:43;11.23;;;4.47;;
10458;SDS011;5277;48.722;8.736;2023-03-13T00:46:11;17.70;;;5.33;;
10458;SDS011;5277;48.722;8.736;2023-03-13T00:48:38;12.93;;;4.40;;
10458;SDS011;5277;48.722;8.736;2023-03-13T00:51:04;18.13;;;4.33;;
10458;SDS011;5277;48.722;8.736;2023-03-13T00:53:30;10.97;;;4.10;;
10458;SDS011;5277;48.722;8.736;2023-03-13T00:55:57;18.13;;;4.47;;
10458;SDS011;5277;48.722;8.736;2023-03-13T00:58:25;9.03;;;4.00;;
10458;SDS011;5277;48.722;8.736;2023-03-13T01:00:52;14.60;;;4.97;;
10458;SDS011;5277;48.722;8.736;2023-03-13T01:03:19;8.93;;;4.07;;
10458;SDS011;5277;48.722;8.736;2023-03-13T01:05:58;9.60;;;4.53;;
10458;SDS011;5277;48.722;8.736;2023-03-13T01:08:26;9.77;;;4.40;;
10458;SDS011;5277;48.722;8.736;2023-03-13T01:11:02;8.27;;;3.97;;
10458;SDS011;5277;48.722;8.736;2023-03-13T01:13:33;16.53;;;4.93;;
10458;SDS011;5277;48.722;8.736;2023-03-13T01:16:18;10.77;;;4.67;;
10458;SDS011;5277;48.722;8.736;2023-03-13T01:18:46;9.17;;;4.00;;
10458;SDS011;5277;48.722;8.736;2023-03-13T01:21:13;12.33;;;4.73;;
10458;SDS011;5277;48.722;8.736;2023-03-13T01:23:40;13.83;;;4.63;;
10458;SDS011;5277;48.722;8.736;2023-03-13T01:26:06;17.10;;;5.47;;
10458;SDS011;5277;48.722;8.736;2023-03-13T01:28:33;13.60;;;4.77;;
10458;SDS011;5277;48.722;8.736;2023-03-13T01:31:00;13.70;;;5.07;;
10458;SDS011;5277;48.722;8.736;2023-03-13T01:33:34;13.27;;;5.40;;
10458;SDS011;5277;48.722;8.736;2023-03-13T01:36:00;11.73;;;4.00;;
10458;SDS011;5277;48.722;8.736;2023-03-13T01:38:27;10.53;;;3.73;;
10458;SDS011;5277;48.722;8.736;2023-03-13T01:40:53;13.40;;;3.90;;
10458;SDS011;5277;48.722;8.736;2023-03-13T01:43:20;9.73;;;3.17;;
10458;SDS011;5277;48.722;8.736;2023-03-13T01:45:49;8.13;;;3.53;;
10458;SDS011;5277;48.722;8.736;2023-03-13T01:53:56;11.00;;;3.53;;
10458;SDS011;5277;48.722;8.736;2023-03-13T01:56:39;7.97;;;3.30;;
10458;SDS011;5277;48.722;8.736;2023-03-13T01:59:10;13.03;;;3.43;;
10458;SDS011;5277;48.722;8.736;2023-03-13T02:01:39;9.03;;;3.30;;
10458;SDS011;5277;48.722;8.736;2023-03-13T02:04:07;7.57;;;2.87;;
10458;SDS011;5277;48.722;8.736;2023-03-13T02:06:33;8.43;;;3.30;;
10458;SDS011;5277;48.722;8.736;2023-03-13T02:09:02;10.10;;;3.40;;
10458;SDS011;5277;48.722;8.736;2023-03-13T02:14:12;6.23;;;3.10;;
10458;SDS011;5277;48.722;8.736;2023-03-13T02:16:37;9.90;;;3.30;;
10458;SDS011;5277;48.722;8.736;2023-03-13T02:19:26;8.70;;;3.13;;
10458;SDS011;5277;48.722;8.736;2023-03-13T02:21:54;12.33;;;3.80;;
10458;SDS011;5277;48.722;8.736;2023-03-13T02:27:25;14.80;;;4.13;;
10458;SDS011;5277;48.722;8.736;2023-03-13T02:29:51;8.70;;;3.87;;
10458;SDS011;5277;48.722;8.736;2023-03-13T02:32:17;11.03;;;3.73;;
10458;SDS011;5277;48.722;8.736;2023-03-13T02:34:43;14.20;;;4.03;;
10458;SDS011;5277;48.722;8.736;2023-03-13T02:37:12;10.43;;;3.70;;
10458;SDS011;5277;48.722;8.736;2023-03-13T02:39:40;13.07;;;3.60;;
10458;SDS011;5277;48.722;8.736;2023-03-13T02:42:10;8.07;;;3.03;;
10458;SDS011;5277;48.722;8.736;2023-03-13T02:44:40;10.30;;;3.30;;
10458;SDS011;5277;48.722;8.736;2023-03-13T02:47:08;10.30;;;3.23;;
10458;SDS011;5277;48.722;8.736;2023-03-13T02:49:34;6.33;;;2.60;;
10458;SDS011;5277;48.722;8.736;2023-03-13T02:52:15;6.90;;;2.57;;
10458;SDS011;5277;48.722;8.736;2023-03-13T02:54:46;8.77;;;2.73;;
10458;SDS011;5277;48.722;8.736;2023-03-13T02:57:15;5.73;;;1.87;;
10458;SDS011;5277;48.722;8.736;2023-03-13T02:59:41;5.37;;;2.00;;
10458;SDS011;5277;48.722;8.736;2023-03-13T03:02:06;7.60;;;1.70;;
10458;SDS011;5277;48.722;8.736;2023-03-13T03:04:32;6.37;;;1.70;;
10458;SDS011;5277;48.722;8.736;2023-03-13T03:06:58;9.93;;;1.70;;
10458;SDS011;5277;48.722;8.736;2023-03-13T03:09:23;5.40;;;1.57;;
10458;SDS011;5277;48.722;8.736;2023-03-13T03:11:49;7.13;;;1.70;;
10458;SDS011;5277;48.722;8.736;2023-03-13T03:14:15;6.90;;;1.90;;
10458;SDS011;5277;48.722;8.736;2023-03-13T03:16:41;7.27;;;1.60;;
10458;SDS011;5277;48.722;8.736;2023-03-13T03:19:07;5.33;;;1.70;;
10458;SDS011;5277;48.722;8.736;2023-03-13T03:21:32;7.00;;;2.00;;
10458;SDS011;5277;48.722;8.736;2023-03-13T03:23:59;6.00;;;1.60;;
10458;SDS011;5277;48.722;8.736;2023-03-13T03:26:24;9.70;;;1.90;;
10458;SDS011;5277;48.722;8.736;2023-03-13T03:28:50;8.70;;;1.90;;
10458;SDS011;5277;48.722;8.736;2023-03-13T03:31:16;8.27;;;1.90;;
10458;SDS011;5277;48.722;8.736;2023-03-13T03:33:42;3.93;;;1.60;;
10458;SDS011;5277;48.722;8.736;2023-03-13T03:36:09;11.13;;;1.70;;
10458;SDS011;5277;48.722;8.736;2023-03-13T03:38:37;7.97;;;2.03;;
10458;SDS011;5277;48.722;8.736;2023-03-13T03:41:04;6.00;;;1.73;;
10458;SDS011;5277;48.722;8.736;2023-03-13T03:43:31;5.75;;;1.85;;
10458;SDS011;5277;48.722;8.736;2023-03-13T03:45:56;6.97;;;1.70;;
10458;SDS011;5277;48.722;8.736;2023-03-13T03:48:22;5.30;;;1.60;;
10458;SDS011;5277;48.722;8.736;2023-03-13T03:50:47;4.28;;;1.50;;
10458;SDS011;5277;48.722;8.736;2023-03-13T03:53:13;5.68;;;1.30;;
10458;SDS011;5277;48.722;8.736;2023-03-13T03:55:39;5.00;;;1.55;;
10458;SDS011;5277;48.722;8.736;2023-03-13T03:58:04;5.60;;;1.63;;
10458;SDS011;5277;48.722;8.736;2023-03-13T04:00:30;5.45;;;1.40;;
10458;SDS011;5277;48.722;8.736;2023-03-13T04:02:56;3.63;;;1.35;;
10458;SDS011;5277;48.722;8.736;2023-03-13T04:05:22;5.70;;;1.40;;
10458;SDS011;5277;48.722;8.736;2023-03-13T04:07:48;7.90;;;1.73;;
10458;SDS011;5277;48.722;8.736;2023-03-13T04:10:13;3.95;;;1.30;;
10458;SDS011;5277;48.722;8.736;2023-03-13T04:12:39;3.20;;;1.25;;
10458;SDS011;5277;48.722;8.736;2023-03-13T04:15:05;3.65;;;1.50;;
10458;SDS011;5277;48.722;8.736;2023-03-13T04:17:31;5.93;;;1.38;;
10458;SDS011;5277;48.722;8.736;2023-03-13T04:19:57;3.53;;;1.33;;
10458;SDS011;5277;48.722;8.736;2023-03-13T04:22:23;3.47;;;1.48;;
10458;SDS011;5277;48.722;8.736;2023-03-13T04:24:49;4.80;;;1.48;;
10458;SDS011;5277;48.722;8.736;2023-03-13T04:27:14;11.85;;;1.30;;
10458;SDS011;5277;48.722;8.736;2023-03-13T04:29:40;3.95;;;1.38;;
10458;SDS011;5277;48.722;8.736;2023-03-13T04:32:06;1.88;;;1.02;;
10458;SDS011;5277;48.722;8.736;2023-03-13T04:34:31;3.75;;;1.42;;
10458;SDS011;5277;48.722;8.736;2023-03-13T04:36:57;5.30;;;1.60;;
10458;SDS011;5277;48.722;8.736;2023-03-13T04:39:23;2.67;;;1.10;;
10458;SDS011;5277;48.722;8.736;2023-03-13T04:41:53;5.07;;;1.13;;
10458;SDS011;5277;48.722;8.736;2023-03-13T04:44:19;3.65;;;1.20;;
10458;SDS011;5277;48.722;8.736;2023-03-13T04:46:46;3.15;;;1.38;;
10458;SDS011;5277;48.722;8.736;2023-03-13T04:49:11;5.40;;;1.00;;
10458;SDS011;5277;48.722;8.736;2023-03-13T04:51:38;2.88;;;1.02;;
10458;SDS011;5277;48.722;8.736;2023-03-13T04:54:05;2.17;;;0.90;;
10458;SDS011;5277;48.722;8.736;2023-03-13T04:56:30;3.63;;;1.10;;
10458;SDS011;5277;48.722;8.736;2023-03-13T04:58:56;2.40;;;1.00;;
10458;SDS011;5277;48.722;8.736;2023-03-13T05:01:21;3.00;;;1.15;;
10458;SDS011;5277;48.722;8.736;2023-03-13T05:03:47;1.77;;;0.85;;
10458;SDS011;5277;48.722;8.736;2023-03-13T05:06:13;2.58;;;1.02;;
10458;SDS011;5277;48.722;8.736;2023-03-13T05:08:38;1.90;;;0.88;;
10458;SDS011;5277;48.722;8.736;2023-03-13T05:11:04;1.70;;;0.88;;
10458;SDS011;5277;48.722;8.736;2023-03-13T05:13:30;2.53;;;0.80;;
10458;SDS011;5277;48.722;8.736;2023-03-13T05:15:55;1.52;;;0.95;;
10458;SDS011;5277;48.722;8.736;2023-03-13T05:18:21;5.43;;;0.80;;
10458;SDS011;5277;48.722;8.736;2023-03-13T05:20:47;4.25;;;0.85;;
10458;SDS011;5277;48.722;8.736;2023-03-13T05:23:13;1.52;;;0.70;;
10458;SDS011;5277;48.722;8.736;2023-03-13T05:25:39;3.20;;;0.90;;
10458;SDS011;5277;48.722;8.736;2023-03-13T05:28:04;1.73;;;0.82;;
10458;SDS011;5277;48.722;8.736;2023-03-13T05:30:30;3.00;;;1.00;;
10458;SDS011;5277;48.722;8.736;2023-03-13T05:32:56;1.98;;;0.88;;
10458;SDS011;5277;48.722;8.736;2023-03-13T05:35:21;2.20;;;0.57;;
10458;SDS011;5277;48.722;8.736;2023-03-13T05:37:47;1.73;;;0.70;;
10458;SDS011;5277;48.722;8.736;2023-03-13T05:40:12;1.42;;;0.70;;
10458;SDS011;5277;48.722;8.736;2023-03-13T05:42:38;1.38;;;0.65;;
10458;SDS011;5277;48.722;8.736;2023-03-13T05:45:04;2.63;;;0.70;;
10458;SDS011;5277;48.722;8.736;2023-03-13T05:47:32;1.83;;;0.70;;
10458;SDS011;5277;48.722;8.736;2023-03-13T05:49:58;1.02;;;0.60;;
10458;SDS011;5277;48.722;8.736;2023-03-13T05:52:23;3.40;;;0.98;;
10458;SDS011;5277;48.722;8.736;2023-03-13T05:54:49;1.10;;;0.70;;
10458;SDS011;5277;48.722;8.736;2023-03-13T05:57:14;2.92;;;0.93;;
10458;SDS011;5277;48.722;8.736;2023-03-13T05:59:40;2.15;;;1.02;;
10458;SDS011;5277;48.722;8.736;2023-03-13T06:02:06;6.03;;;1.20;;
10458;SDS011;5277;48.722;8.736;2023-03-13T06:04:31;1.83;;;0.70;;
10458;SDS011;5277;48.722;8.736;2023-03-13T06:06:57;1.40;;;0.68;;
10458;SDS011;5277;48.722;8.736;2023-03-13T06:09:23;0.90;;;0.60;;
10458;SDS011;5277;48.722;8.736;2023-03-13T06:11:48;1.92;;;0.60;;
10458;SDS011;5277;48.722;8.736;2023-03-13T06:14:14;2.25;;;0.60;;
10458;SDS011;5277;48.722;8.736;2023-03-13T06:16:40;3.65;;;1.00;;
10458;SDS011;5277;48.722;8.736;2023-03-13T06:19:07;2.33;;;0.75;;
10458;SDS011;5277;48.722;8.736;2023-03-13T06:21:32;1.35;;;0.60;;
10458;SDS011;5277;48.722;8.736;2023-03-13T06:23:58;1.95;;;0.90;;
10458;SDS011;5277;48.722;8.736;2023-03-13T06:26:23;1.08;;;0.50;;
10458;SDS011;5277;48.722;8.736;2023-03-13T06:28:49;0.90;;;0.68;;
10458;SDS011;5277;48.722;8.736;2023-03-13T06:31:15;1.95;;;0.82;;
10458;SDS011;5277;48.722;8.736;2023-03-13T06:33:41;2.35;;;0.70;;
10458;SDS011;5277;48.722;8.736;2023-03-13T06:36:07;0.55;;;0.50;;
10458;SDS011;5277;48.722;8.736;2023-03-13T06:38:33;1.27;;;0.70;;
10458;SDS011;5277;48.722;8.736;2023-03-13T06:40:58;2.05;;;0.73;;
10458;SDS011;5277;48.722;8.736;2023-03-13T06:43:24;9.88;;;0.90;;
10458;SDS011;5277;48.722;8.736;2023-03-13T06:45:50;2.10;;;0.70;;
10458;SDS011;5277;48.722;8.736;2023-03-13T06:48:16;2.47;;;0.82;;
10458;SDS011;5277;48.722;8.736;2023-03-13T06:50:42;1.92;;;0.93;;
10458;SDS011;5277;48.722;8.736;2023-03-13T06:53:13;1.83;;;0.90;;
10458;SDS011;5277;48.722;8.736;2023-03-13T06:55:41;2.63;;;0.77;;
10458;SDS011;5277;48.722;8.736;2023-03-13T06:58:08;2.33;;;0.77;;
10458;SDS011;5277;48.722;8.736;2023-03-13T07:00:34;1.90;;;0.60;;
10458;SDS011;5277;48.722;8.736;2023-03-13T07:03:00;1.75;;;0.70;;
10458;SDS011;5277;48.722;8.736;2023-03-13T07:05:25;1.15;;;0.60;;
10458;SDS011;5277;48.722;8.736;2023-03-13T07:07:52;1.10;;;0.50;;
10458;SDS011;5277;48.722;8.736;2023-03-13T07:10:17;1.00;;;0.50;;
10458;SDS011;5277;48.722;8.736;2023-03-13T07:12:43;2.55;;;0.70;;
10458;SDS011;5277;48.722;8.736;2023-03-13T07:15:09;0.90;;;0.63;;
10458;SDS011;5277;48.722;8.736;2023-03-13T07:17:35;4.07;;;0.63;;
10458;SDS011;5277;48.722;8.736;2023-03-13T07:20:01;1.20;;;0.60;;
10458;SDS011;5277;48.722;8.736;2023-03-13T07:22:28;1.48;;;0.80;;
10458;SDS011;5277;48.722;8.736;2023-03-13T07:24:54;1.65;;;0.70;;
10458;SDS011;5277;48.722;8.736;2023-03-13T07:27:20;1.20;;;0.80;;
10458;SDS011;5277;48.722;8.736;2023-03-13T07:29:46;1.17;;;0.70;;
10458;SDS011;5277;48.722;8.736;2023-03-13T07:32:12;1.42;;;0.70;;
10458;SDS011;5277;48.722;8.736;2023-03-13T07:34:38;2.00;;;0.75;;
10458;SDS011;5277;48.722;8.736;2023-03-13T07:37:03;1.05;;;0.90;;
10458;SDS011;5277;48.722;8.736;2023-03-13T07:39:29;1.83;;;0.80;;
10458;SDS011;5277;48.722;8.736;2023-03-13T07:41:55;1.48;;;0.80;;
10458;SDS011;5277;48.722;8.736;2023-03-13T07:44:20;1.38;;;0.75;;
10458;SDS011;5277;48.722;8.736;2023-03-13T07:46:46;1.27;;;0.70;;
10458;SDS011;5277;48.722;8.736;2023-03-13T07:49:12;1.88;;;0.73;;
10458;SDS011;5277;48.722;8.736;2023-03-13T07:51:38;2.85;;;0.80;;
10458;SDS011;5277;48.722;8.736;2023-03-13T07:54:03;0.85;;;0.63;;
10458;SDS011;5277;48.722;8.736;2023-03-13T07:56:29;2.28;;;1.20;;
10458;SDS011;5277;48.722;8.736;2023-03-13T07:58:55;0.82;;;0.70;;
10458;SDS011;5277;48.722;8.736;2023-03-13T08:01:22;1.38;;;0.80;;
10458;SDS011;5277;48.722;8.736;2023-03-13T08:03:49;1.77;;;0.82;;
10458;SDS011;5277;48.722;8.736;2023-03-13T08:06:16;0.70;;;0.60;;
10458;SDS011;5277;48.722;8.736;2023-03-13T08:08:44;0.93;;;0.68;;
10458;SDS011;5277;48.722;8.736;2023-03-13T08:11:20;1.55;;;0.70;;
10458;SDS011;5277;48.722;8.736;2023-03-13T08:13:48;2.20;;;0.80;;
10458;SDS011;5277;48.722;8.736;2023-03-13T08:16:18;0.70;;;0.60;;
10458;SDS011;5277;48.722;8.736;2023-03-13T08:18:49;0.98;;;0.68;;
10458;SDS011;5277;48.722;8.736;2023-03-13T08:21:17;1.45;;;0.77;;
10458;SDS011;5277;48.722;8.736;2023-03-13T08:23:45;1.17;;;0.80;;
10458;SDS011;5277;48.722;8.736;2023-03-13T08:26:12;1.33;;;0.80;;
10458;SDS011;5277;48.722;8.736;2023-03-13T08:28:40;1.35;;;1.10;;
10458;SDS011;5277;48.722;8.736;2023-03-13T08:33:39;0.90;;;0.80;;
10458;SDS011;5277;48.722;8.736;2023-03-13T08:36:10;1.08;;;0.73;;
10458;SDS011;5277;48.722;8.736;2023-03-13T08:38:41;1.80;;;0.90;;
10458;SDS011;5277;48.722;8.736;2023-03-13T08:41:08;1.58;;;0.90;;
10458;SDS011;5277;48.722;8.736;2023-03-13T08:43:34;2.05;;;0.93;;
10458;SDS011;5277;48.722;8.736;2023-03-13T08:46:01;3.20;;;0.80;;
10458;SDS011;5277;48.722;8.736;2023-03-13T08:48:27;4.03;;;0.80;;
10458;SDS011;5277;48.722;8.736;2023-03-13T08:51:05;2.40;;;0.90;;
10458;SDS011;5277;48.722;8.736;2023-03-13T08:53:36;1.90;;;0.80;;
10458;SDS011;5277;48.722;8.736;2023-03-13T08:56:03;3.17;;;1.10;;
10458;SDS011;5277;48.722;8.736;2023-03-13T08:58:30;1.33;;;0.80;;
10458;SDS011;5277;48.722;8.736;2023-03-13T09:01:06;2.22;;;1.00;;
10458;SDS011;5277;48.722;8.736;2023-03-13T09:03:34;2.10;;;1.00;;
10458;SDS011;5277;48.722;8.736;2023-03-13T09:06:00;2.10;;;0.70;;
10458;SDS011;5277;48.722;8.736;2023-03-13T09:08:26;1.17;;;0.98;;
10458;SDS011;5277;48.722;8.736;2023-03-13T09:11:12;1.92;;;0.90;;
10458;SDS011;5277;48.722;8.736;2023-03-13T09:13:44;1.55;;;1.00;;
10458;SDS011;5277;48.722;8.736;2023-03-13T09:16:12;1.48;;;0.90;;
10458;SDS011;5277;48.722;8.736;2023-03-13T09:18:43;2.30;;;0.95;;
10458;SDS011;5277;48.722;8.736;2023-03-13T09:21:18;2.45;;;1.00;;
10458;SDS011;5277;48.722;8.736;2023-03-13T09:23:48;1.10;;;0.88;;
10458;SDS011;5277;48.722;8.736;2023-03-13T09:26:15;8.38;;;1.90;;
10458;SDS011;5277;48.722;8.736;2023-03-13T09:28:41;2.03;;;0.90;;
10458;SDS011;5277;48.722;8.736;2023-03-13T09:31:11;3.20;;;1.10;;
10458;SDS011;5277;48.722;8.736;2023-03-13T09:33:38;1.50;;;1.17;;
10458;SDS011;5277;48.722;8.736;2023-03-13T09:36:05;3.67;;;1.10;;
10458;SDS011;5277;48.722;8.736;2023-03-13T09:38:31;1.60;;;0.98;;
10458;SDS011;5277;48.722;8.736;2023-03-13T09:41:00;3.20;;;1.20;;
10458;SDS011;5277;48.722;8.736;2023-03-13T09:46:34;1.58;;;1.08;;
10458;SDS011;5277;48.722;8.736;2023-03-13T09:49:07;2.78;;;1.20;;
10458;SDS011;5277;48.722;8.736;2023-03-13T09:51:39;2.08;;;1.23;;
10458;SDS011;5277;48.722;8.736;2023-03-13T09:56:44;2.63;;;0.98;;
10458;SDS011;5277;48.722;8.736;2023-03-13T10:01:52;2.63;;;0.80;;
10458;SDS011;5277;48.722;8.736;2023-03-13T10:04:28;1.55;;;0.85;;
10458;SDS011;5277;48.722;8.736;2023-03-13T10:07:09;2.95;;;1.15;;
10458;SDS011;5277;48.722;8.736;2023-03-13T10:09:35;4.80;;;1.10;;
10458;SDS011;5277;48.722;8.736;2023-03-13T10:17:44;4.20;;;1.10;;
10458;SDS011;5277;48.722;8.736;2023-03-13T10:20:21;1.60;;;1.10;;
10458;SDS011;5277;48.722;8.736;2023-03-13T10:22:55;1.83;;;1.13;;
10458;SDS011;5277;48.722;8.736;2023-03-13T10:25:31;1.33;;;0.80;;
10458;SDS011;5277;48.722;8.736;2023-03-13T10:27:58;2.33;;;1.20;;
10458;SDS011;5277;48.722;8.736;2023-03-13T10:30:26;3.83;;;1.02;;
10458;SDS011;5277;48.722;8.736;2023-03-13T10:32:56;2.47;;;1.15;;
10458;SDS011;5277;48.722;8.736;2023-03-13T10:35:36;1.92;;;1.00;;
10458;SDS011;5277;48.722;8.736;2023-03-13T10:38:04;1.58;;;1.00;;
10458;SDS011;5277;48.722;8.736;2023-03-13T10:40:30;2.67;;;1.50;;
10458;SDS011;5277;48.722;8.736;2023-03-13T10:43:11;3.00;;;1.10;;
10458;SDS011;5277;48.722;8.736;2023-03-13T10:45:39;6.15;;;1.23;;
10458;SDS011;5277;48.722;8.736;2023-03-13T10:48:14;2.35;;;1.17;;
10458;SDS011;5277;48.722;8.736;2023-03-13T10:50:45;1.63;;;1.08;;
10458;SDS011;5277;48.722;8.736;2023-03-13T10:53:26;5.38;;;1.33;;
10458;SDS011;5277;48.722;8.736;2023-03-13T10:56:14;4.78;;;1.10;;
10458;SDS011;5277;48.722;8.736;2023-03-13T10:58:44;2.03;;;0.90;;
10458;SDS011;5277;48.722;8.736;2023-03-13T11:01:22;6.03;;;1.30;;
10458;SDS011;5277;48.722;8.736;2023-03-13T11:03:51;3.33;;;1.27;;
10458;SDS011;5277;48.722;8.736;2023-03-13T11:08:49;4.20;;;1.40;;
10458;SDS011;5277;48.722;8.736;2023-03-13T11:11:22;1.52;;;1.05;;
10458;SDS011;5277;48.722;8.736;2023-03-13T11:13:51;4.63;;;1.30;;
10458;SDS011;5277;48.722;8.736;2023-03-13T11:16:25;1.80;;;1.00;;
10458;SDS011;5277;48.722;8.736;2023-03-13T11:21:48;2.85;;;1.20;;
10458;SDS011;5277;48.722;8.736;2023-03-13T11:24:38;1.60;;;1.00;;
10458;SDS011;5277;48.722;8.736;2023-03-13T11:27:56;1.20;;;1.00;;
10458;SDS011;5277;48.722;8.736;2023-03-13T11:32:41;1.90;;;1.00;;
10458;SDS011;5277;48.722;8.736;2023-03-13T11:37:59;1.58;;;0.93;;
10458;SDS011;5277;48.722;8.736;2023-03-13T11:40:35;3.42;;;0.90;;
10458;SDS011;5277;48.722;8.736;2023-03-13T11:48:34;0.98;;;0.88;;
10458;SDS011;5277;48.722;8.736;2023-03-13T11:56:41;1.98;;;1.10;;
10458;SDS011;5277;48.722;8.736;2023-03-13T12:01:56;3.08;;;0.95;;
10458;SDS011;5277;48.722;8.736;2023-03-13T12:04:40;1.48;;;1.15;;
10458;SDS011;5277;48.722;8.736;2023-03-13T12:09:51;3.40;;;1.30;;
10458;SDS011;5277;48.722;8.736;2023-03-13T12:24:02;1.50;;;1.00;;
10458;SDS011;5277;48.722;8.736;2023-03-13T12:26:59;1.48;;;1.00;;
10458;SDS011;5277;48.722;8.736;2023-03-13T12:29:40;1.98;;;1.20;;
10458;SDS011;5277;48.722;8.736;2023-03-13T12:32:13;1.73;;;1.00;;
10458;SDS011;5277;48.722;8.736;2023-03-13T12:34:50;1.75;;;1.00;;
10458;SDS011;5277;48.722;8.736;2023-03-13T12:45:33;1.80;;;1.00;;
10458;SDS011;5277;48.722;8.736;2023-03-13T12:51:05;4.30;;;1.02;;
10458;SDS011;5277;48.722;8.736;2023-03-13T12:59:37;1.17;;;0.88;;
10458;SDS011;5277;48.722;8.736;2023-03-13T13:02:14;2.38;;;1.00;;
10458;SDS011;5277;48.722;8.736;2023-03-13T13:04:44;1.58;;;1.10;;
10458;SDS011;5277;48.722;8.736;2023-03-13T13:12:33;1.85;;;0.90;;
10458;SDS011;5277;48.722;8.736;2023-03-13T13:15:24;2.17;;;0.90;;
10458;SDS011;5277;48.722;8.736;2023-03-13T13:18:02;5.72;;;0.80;;
10458;SDS011;5277;48.722;8.736;2023-03-13T13:20:48;2.47;;;0.90;;
10458;SDS011;5277;48.722;8.736;2023-03-13T13:23:41;1.52;;;0.90;;
10458;SDS011;5277;48.722;8.736;2023-03-13T13:28:55;2.78;;;0.75;;
10458;SDS011;5277;48.722;8.736;2023-03-13T13:35:04;3.35;;;0.80;;
10458;SDS011;5277;48.722;8.736;2023-03-13T13:39:51;2.83;;;0.90;;
10458;SDS011;5277;48.722;8.736;2023-03-13T13:47:30;3.53;;;0.80;;
10458;SDS011;5277;48.722;8.736;2023-03-13T13:49:59;3.55;;;1.00;;
10458;SDS011;5277;48.722;8.736;2023-03-13T13:54:59;1.77;;;0.80;;
10458;SDS011;5277;48.722;8.736;2023-03-13T13:57:28;2.08;;;1.00;;
10458;SDS011;5277;48.722;8.736;2023-03-13T14:02:50;1.52;;;0.90;;
10458;SDS011;5277;48.722;8.736;2023-03-13T14:05:27;1.92;;;0.88;;
10458;SDS011;5277;48.722;8.736;2023-03-13T14:08:13;4.25;;;0.82;;
10458;SDS011;5277;48.722;8.736;2023-03-13T14:10:53;1.40;;;0.80;;
10458;SDS011;5277;48.722;8.736;2023-03-13T14:13:31;2.03;;;1.00;;
10458;SDS011;5277;48.722;8.736;2023-03-13T14:15:57;2.22;;;0.90;;
10458;SDS011;5277;48.722;8.736;2023-03-13T14:18:48;2.80;;;1.10;;
10458;SDS011;5277;48.722;8.736;2023-03-13T14:21:14;6.03;;;1.13;;
10458;SDS011;5277;48.722;8.736;2023-03-13T14:23:46;0.80;;;0.73;;
10458;SDS011;5277;48.722;8.736;2023-03-13T14:28:43;3.90;;;1.00;;
10458;SDS011;5277;48.722;8.736;2023-03-13T14:31:29;2.15;;;0.73;;
10458;SDS011;5277;48.722;8.736;2023-03-13T14:33:58;2.03;;;0.80;;
10458;SDS011;5277;48.722;8.736;2023-03-13T14:36:25;1.27;;;0.80;;
10458;SDS011;5277;48.722;8.736;2023-03-13T14:38:55;2.22;;;0.98;;
10458;SDS011;5277;48.722;8.736;2023-03-13T14:41:35;2.28;;;1.10;;
10458;SDS011;5277;48.722;8.736;2023-03-13T14:44:04;4.68;;;1.25;;
10458;SDS011;5277;48.722;8.736;2023-03-13T14:46:39;1.95;;;0.93;;
10458;SDS011;5277;48.722;8.736;2023-03-13T14:49:27;3.03;;;0.70;;
10458;SDS011;5277;48.722;8.736;2023-03-13T14:52:18;7.55;;;0.90;;
10458;SDS011;5277;48.722;8.736;2023-03-13T14:54:56;5.35;;;1.00;;
10458;SDS011;5277;48.722;8.736;2023-03-13T14:57:23;3.67;;;1.02;;
10458;SDS011;5277;48.722;8.736;2023-03-13T14:59:50;1.13;;;0.90;;
10458;SDS011;5277;48.722;8.736;2023-03-13T15:02:22;1.10;;;0.80;;
10458;SDS011;5277;48.722;8.736;2023-03-13T15:07:23;3.28;;;1.00;;
10458;SDS011;5277;48.722;8.736;2023-03-13T15:09:50;1.67;;;1.10;;
10458;SDS011;5277;48.722;8.736;2023-03-13T15:12:17;1.90;;;0.90;;
10458;SDS011;5277;48.722;8.736;2023-03-13T15:14:46;1.88;;;0.95;;
10458;SDS011;5277;48.722;8.736;2023-03-13T15:17:20;1.67;;;1.00;;
10458;SDS011;5277;48.722;8.736;2023-03-13T15:19:52;1.00;;;0.70;;
10458;SDS011;5277;48.722;8.736;2023-03-13T15:22:55;1.27;;;0.90;;
10458;SDS011;5277;48.722;8.736;2023-03-13T15:25:15;1.45;;;1.00;;
10458;SDS011;5277;48.722;8.736;2023-03-13T15:27:47;2.80;;;1.00;;
10458;SDS011;5277;48.722;8.736;2023-03-13T15:30:14;1.00;;;0.90;;
10458;SDS011;5277;48.722;8.736;2023-03-13T15:32:41;2.33;;;0.90;;
10458;SDS011;5277;48.722;8.736;2023-03-13T15:35:21;3.70;;;0.98;;
10458;SDS011;5277;48.722;8.736;2023-03-13T15:37:59;2.85;;;0.88;;
10458;SDS011;5277;48.722;8.736;2023-03-13T15:40:26;1.73;;;1.00;;
10458;SDS011;5277;48.722;8.736;2023-03-13T15:42:52;1.98;;;0.90;;
10458;SDS011;5277;48.722;8.736;2023-03-13T15:45:19;3.78;;;1.00;;
10458;SDS011;5277;48.722;8.736;2023-03-13T15:47:47;1.38;;;1.00;;
10458;SDS011;5277;48.722;8.736;2023-03-13T15:50:14;1.13;;;0.77;;
10458;SDS011;5277;48.722;8.736;2023-03-13T15:52:42;2.72;;;0.95;;
10458;SDS011;5277;48.722;8.736;2023-03-13T15:55:11;3.47;;;1.55;;
10458;SDS011;5277;48.722;8.736;2023-03-13T15:57:38;0.95;;;0.75;;
10458;SDS011;5277;48.722;8.736;2023-03-13T16:00:14;1.35;;;0.95;;
10458;SDS011;5277;48.722;8.736;2023-03-13T16:02:45;1.48;;;1.00;;
10458;SDS011;5277;48.722;8.736;2023-03-13T16:05:10;3.17;;;1.15;;
10458;SDS011;5277;48.722;8.736;2023-03-13T16:07:36;2.28;;;1.05;;
10458;SDS011;5277;48.722;8.736;2023-03-13T16:10:02;2.65;;;0.93;;
10458;SDS011;5277;48.722;8.736;2023-03-13T16:12:29;1.65;;;0.90;;
10458;SDS011;5277;48.722;8.736;2023-03-13T16:14:54;2.28;;;1.23;;
10458;SDS011;5277;48.722;8.736;2023-03-13T16:17:20;7.47;;;0.93;;
10458;SDS011;5277;48.722;8.736;2023-03-13T16:19:46;3.55;;;1.17;;
10458;SDS011;5277;48.722;8.736;2023-03-13T16:22:12;4.60;;;1.35;;
10458;SDS011;5277;48.722;8.736;2023-03-13T16:24:39;2.92;;;1.15;;
10458;SDS011;5277;48.722;8.736;2023-03-13T16:27:15;1.75;;;1.08;;
10458;SDS011;5277;48.722;8.736;2023-03-13T16:29:42;2.00;;;0.90;;
10458;SDS011;5277;48.722;8.736;2023-03-13T16:32:10;3.28;;;1.40;;
10458;SDS011;5277;48.722;8.736;2023-03-13T16:34:36;2.35;;;1.00;;
10458;SDS011;5277;48.722;8.736;2023-03-13T16:37:13;2.70;;;1.15;;
10458;SDS011;5277;48.722;8.736;2023-03-13T16:39:41;3.22;;;0.90;;
10458;SDS011;5277;48.722;8.736;2023-03-13T16:42:08;2.75;;;1.17;;
10458;SDS011;5277;48.722;8.736;2023-03-13T16:44:34;4.07;;;1.00;;
10458;SDS011;5277;48.722;8.736;2023-03-13T16:47:00;3.50;;;1.40;;
10458;SDS011;5277;48.722;8.736;2023-03-13T16:49:25;3.08;;;1.90;;
10458;SDS011;5277;48.722;8.736;2023-03-13T16:51:51;2.50;;;1.70;;
10458;SDS011;5277;48.722;8.736;2023-03-13T16:54:17;2.78;;;1.20;;
10458;SDS011;5277;48.722;8.736;2023-03-13T16:56:42;3.72;;;1.23;;
10458;SDS011;5277;48.722;8.736;2023-03-13T16:59:15;3.22;;;1.05;;
10458;SDS011;5277;48.722;8.736;2023-03-13T17:01:43;2.55;;;1.40;;
10458;SDS011;5277;48.722;8.736;2023-03-13T17:04:10;2.72;;;1.20;;
10458;SDS011;5277;48.722;8.736;2023-03-13T17:06:37;8.05;;;2.20;;